createdAt,value
2022-09-23T00:02:16.658Z,99.90
2022-09-23T00:04:45.124Z,99.90
2022-09-23T00:07:13.433Z,99.90
2022-09-23T00:09:43.115Z,99.90
2022-09-23T00:12:11.423Z,99.90
2022-09-23T00:14:40.400Z,99.90
2022-09-23T00:17:08.810Z,99.90
2022-09-23T00:19:39.567Z,99.90
2022-09-23T00:22:08.878Z,99.90
2022-09-23T00:24:37.180Z,99.90
2022-09-23T00:27:07.038Z,99.90
2022-09-23T00:29:37.005Z,99.90
2022-09-23T00:32:05.978Z,99.90
2022-09-23T00:34:34.529Z,99.90
2022-09-23T00:37:02.804Z,99.90
2022-09-23T00:39:31.315Z,99.90
2022-09-23T00:41:59.715Z,99.90
2022-09-23T00:44:51.133Z,99.90
2022-09-23T00:47:23.564Z,99.90
2022-09-23T00:50:00.239Z,99.90
2022-09-23T00:52:29.148Z,99.90
2022-09-23T00:55:01.106Z,99.90
2022-09-23T00:57:31.284Z,99.90
2022-09-23T01:00:01.172Z,99.90
2022-09-23T01:02:29.681Z,99.90
2022-09-23T01:04:58.192Z,99.90
2022-09-23T01:07:26.732Z,99.90
2022-09-23T01:09:55.187Z,99.90
2022-09-23T01:12:37.155Z,99.90
2022-09-23T01:15:14.242Z,99.90
2022-09-23T01:17:51.231Z,99.90
2022-09-23T01:20:56.360Z,99.90
2022-09-23T01:23:51.887Z,99.90
2022-09-23T01:26:47.797Z,99.90
2022-09-23T01:29:33.381Z,99.90
2022-09-23T01:32:10.549Z,99.90
2022-09-23T01:34:47.817Z,99.90
2022-09-23T01:37:24.819Z,99.90
2022-09-23T01:40:01.790Z,99.90
2022-09-23T01:42:36.396Z,99.90
2022-09-23T01:45:12.688Z,99.90
2022-09-23T01:47:48.751Z,99.90
2022-09-23T01:50:34.436Z,99.90
2022-09-23T01:53:07.131Z,99.90
2022-09-23T01:55:40.423Z,99.90
2022-09-23T01:58:13.202Z,99.90
2022-09-23T02:00:55.855Z,99.90
2022-09-23T02:03:29.427Z,99.90
2022-09-23T02:06:02.795Z,99.90
2022-09-23T02:08:35.950Z,99.90
2022-09-23T02:11:08.077Z,99.90
2022-09-23T02:13:42.684Z,99.90
2022-09-23T02:16:16.184Z,99.90
2022-09-23T02:18:52.686Z,99.90
2022-09-23T02:21:25.181Z,99.90
2022-09-23T02:23:59.520Z,99.90
2022-09-23T02:26:31.760Z,99.90
2022-09-23T02:29:09.140Z,99.90
2022-09-23T02:31:41.873Z,99.90
2022-09-23T02:34:33.733Z,99.90
2022-09-23T02:37:11.690Z,99.90
2022-09-23T02:39:51.780Z,99.90
2022-09-23T02:42:24.346Z,99.90
2022-09-23T02:44:52.814Z,99.90
2022-09-23T02:47:26.007Z,99.90
2022-09-23T02:49:56.433Z,99.90
2022-09-23T02:52:25.473Z,99.90
2022-09-23T02:54:54.163Z,99.90
2022-09-23T02:57:22.734Z,99.90
2022-09-23T02:59:51.715Z,99.90
2022-09-23T03:02:51.860Z,99.90
2022-09-23T03:05:25.819Z,99.90
2022-09-23T03:08:12.703Z,99.90
2022-09-23T03:10:53.078Z,99.90
2022-09-23T03:13:31.309Z,99.90
2022-09-23T03:16:11.305Z,99.90
2022-09-23T03:18:43.812Z,99.90
2022-09-23T03:21:20.864Z,99.90
2022-09-23T03:23:50.159Z,99.90
2022-09-23T03:26:22.826Z,99.90
2022-09-23T03:28:51.939Z,99.90
2022-09-23T03:31:20.472Z,99.90
2022-09-23T03:33:52.422Z,99.90
2022-09-23T03:36:45.456Z,99.90
2022-09-23T03:39:21.664Z,99.90
2022-09-23T03:41:53.932Z,99.90
2022-09-23T03:44:23.435Z,99.90
2022-09-23T03:46:51.884Z,99.90
2022-09-23T03:49:27.423Z,99.90
2022-09-23T03:51:57.148Z,99.90
2022-09-23T03:54:25.932Z,99.90
2022-09-23T03:56:57.643Z,99.90
2022-09-23T03:59:26.246Z,99.90
2022-09-23T04:01:55.608Z,99.90
2022-09-23T04:04:24.024Z,99.90
2022-09-23T04:06:52.373Z,99.90
2022-09-23T04:09:22.106Z,99.90
2022-09-23T04:11:50.971Z,99.90
2022-09-23T04:14:20.546Z,99.90
2022-09-23T04:16:49.741Z,99.90
2022-09-23T04:19:18.573Z,99.90
2022-09-23T04:21:47.540Z,99.90
2022-09-23T04:24:16.630Z,99.90
2022-09-23T04:26:46.486Z,99.90
2022-09-23T04:29:14.905Z,99.90
2022-09-23T04:31:43.240Z,99.90
2022-09-23T04:34:12.025Z,99.90
2022-09-23T04:36:40.855Z,99.90
2022-09-23T04:39:09.260Z,99.90
2022-09-23T04:41:37.952Z,99.90
2022-09-23T04:44:07.759Z,99.90
2022-09-23T04:46:36.179Z,99.90
2022-09-23T04:49:04.512Z,99.90
2022-09-23T04:51:32.838Z,99.90
2022-09-23T04:54:01.122Z,99.90
2022-09-23T04:56:32.592Z,99.90
2022-09-23T04:59:01.934Z,99.90
2022-09-23T05:01:34.458Z,99.90
2022-09-23T05:04:05.421Z,99.90
2022-09-23T05:06:35.542Z,99.90
2022-09-23T05:09:07.300Z,99.90
2022-09-23T05:11:36.378Z,99.90
2022-09-23T05:14:04.984Z,99.90
2022-09-23T05:16:35.911Z,99.90
2022-09-23T05:19:04.577Z,99.90
2022-09-23T05:21:32.847Z,99.90
2022-09-23T05:24:01.147Z,99.90
2022-09-23T05:26:31.928Z,99.90
2022-09-23T05:29:01.195Z,99.90
2022-09-23T05:31:31.342Z,99.90
2022-09-23T05:34:02.612Z,99.90
2022-09-23T05:36:37.613Z,99.90
2022-09-23T05:39:07.723Z,99.90
2022-09-23T05:41:36.602Z,99.90
2022-09-23T05:44:05.300Z,99.90
2022-09-23T05:46:34.144Z,99.90
2022-09-23T05:49:05.948Z,99.90
2022-09-23T05:51:35.507Z,99.90
2022-09-23T05:54:05.428Z,99.90
2022-09-23T05:56:35.769Z,99.90
2022-09-23T05:59:05.131Z,99.90
2022-09-23T06:01:35.618Z,99.90
2022-09-23T06:04:08.230Z,99.90
2022-09-23T06:06:38.871Z,99.90
2022-09-23T06:09:08.225Z,99.90
2022-09-23T06:11:37.282Z,99.90
2022-09-23T06:14:05.794Z,99.90
2022-09-23T06:16:36.645Z,99.90
2022-09-23T06:19:07.196Z,99.90
2022-09-23T06:21:38.371Z,99.90
2022-09-23T06:24:08.028Z,99.90
2022-09-23T06:26:37.820Z,99.90
2022-09-23T06:29:11.552Z,99.90
2022-09-23T06:31:42.117Z,99.90
2022-09-23T06:34:14.858Z,99.90
2022-09-23T06:36:45.758Z,99.90
2022-09-23T06:39:15.886Z,99.90
2022-09-23T06:41:45.232Z,99.90
2022-09-23T06:44:14.522Z,99.90
2022-09-23T06:46:42.875Z,99.90
2022-09-23T06:49:13.368Z,99.90
2022-09-23T06:51:42.317Z,99.90
2022-09-23T06:54:11.178Z,99.90
2022-09-23T06:56:40.038Z,99.90
2022-09-23T06:59:10.742Z,99.90
2022-09-23T07:01:39.349Z,99.90
2022-09-23T07:04:08.376Z,99.90
2022-09-23T07:06:38.260Z,99.90
2022-09-23T07:09:08.130Z,99.90
2022-09-23T07:11:37.684Z,99.60
2022-09-23T07:14:06.348Z,99.10
2022-09-23T07:16:34.771Z,99.00
2022-09-23T07:19:03.073Z,98.30
2022-09-23T07:21:31.453Z,97.70
2022-09-23T07:24:01.228Z,96.10
2022-09-23T07:26:29.595Z,95.50
2022-09-23T07:29:04.898Z,95.40
2022-09-23T07:31:39.746Z,94.70
2022-09-23T07:34:09.960Z,94.50
2022-09-23T07:36:40.732Z,93.40
2022-09-23T07:39:13.277Z,93.10
2022-09-23T07:41:44.368Z,92.50
2022-09-23T07:44:13.425Z,92.20
2022-09-23T07:46:41.812Z,92.20
2022-09-23T07:49:10.624Z,91.40
2022-09-23T07:51:40.852Z,90.80
2022-09-23T07:54:13.224Z,89.90
2022-09-23T07:56:42.488Z,88.90
2022-09-23T07:59:15.386Z,87.00
2022-09-23T08:01:46.201Z,83.50
2022-09-23T08:04:17.717Z,83.20
2022-09-23T08:06:48.470Z,82.00
2022-09-23T08:09:20.497Z,80.60
2022-09-23T08:11:50.712Z,81.70
2022-09-23T08:14:19.688Z,81.20
2022-09-23T08:16:48.204Z,83.70
2022-09-23T08:19:17.044Z,83.90
2022-09-23T08:21:47.553Z,83.20
2022-09-23T08:24:18.799Z,78.10
2022-09-23T08:26:48.475Z,76.30
2022-09-23T08:29:18.707Z,77.20
2022-09-23T08:31:47.184Z,76.80
2022-09-23T08:34:15.504Z,75.00
2022-09-23T08:36:43.952Z,76.60
2022-09-23T08:39:15.192Z,78.80
2022-09-23T08:41:59.237Z,81.90
2022-09-23T08:44:33.497Z,83.10
2022-09-23T08:47:10.375Z,84.50
2022-09-23T08:49:47.368Z,86.40
2022-09-23T08:52:21.108Z,86.70
2022-09-23T08:54:54.559Z,87.20
2022-09-23T08:57:37.262Z,88.80
2022-09-23T09:00:06.623Z,89.50
2022-09-23T09:02:36.795Z,90.20
2022-09-23T09:05:10.102Z,90.60
2022-09-23T09:07:42.118Z,91.50
2022-09-23T09:10:18.749Z,92.60
2022-09-23T09:12:51.027Z,92.90
2022-09-23T09:15:24.826Z,93.20
2022-09-23T09:18:02.414Z,93.60
2022-09-23T09:20:49.677Z,94.00
2022-09-23T09:23:23.343Z,93.50
2022-09-23T09:25:53.648Z,93.50
2022-09-23T09:28:27.959Z,93.70
2022-09-23T09:31:01.053Z,93.80
2022-09-23T09:33:37.471Z,94.20
2022-09-23T09:36:15.853Z,94.00
2022-09-23T09:38:44.166Z,94.10
2022-09-23T09:41:17.012Z,94.20
2022-09-23T09:43:57.702Z,94.40
2022-09-23T09:46:54.587Z,94.70
2022-09-23T09:49:30.958Z,95.40
2022-09-23T09:52:22.643Z,95.30
2022-09-23T09:54:52.054Z,93.90
2022-09-23T09:57:35.167Z,94.00
2022-09-23T10:00:35.524Z,93.90
2022-09-23T10:03:09.181Z,94.00
2022-09-23T10:05:50.205Z,93.80
2022-09-23T10:08:26.804Z,93.70
2022-09-23T10:11:02.439Z,94.20
2022-09-23T10:13:31.679Z,94.90
2022-09-23T10:16:04.001Z,94.10
2022-09-23T10:18:35.912Z,93.70
2022-09-23T10:21:09.139Z,94.20
2022-09-23T10:23:42.157Z,94.40
2022-09-23T10:26:12.343Z,94.80
2022-09-23T10:28:50.276Z,95.20
2022-09-23T10:31:25.809Z,95.70
2022-09-23T10:33:57.321Z,95.50
2022-09-23T10:36:26.004Z,95.50
2022-09-23T10:39:18.701Z,95.90
2022-09-23T10:42:21.168Z,96.10
2022-09-23T10:45:19.860Z,95.50
2022-09-23T10:47:59.468Z,95.40
2022-09-23T10:50:38.975Z,95.70
2022-09-23T10:53:19.348Z,95.20
2022-09-23T10:56:12.162Z,95.00
2022-09-23T10:59:10.344Z,95.10
2022-09-23T11:01:44.932Z,95.40
2022-09-23T11:04:47.995Z,95.30
2022-09-23T11:07:26.654Z,95.50
2022-09-23T11:10:35.375Z,95.60
2022-09-23T11:13:19.685Z,95.10
2022-09-23T11:15:58.585Z,95.00
2022-09-23T11:18:48.016Z,95.20
2022-09-23T11:21:39.017Z,95.80
2022-09-23T11:24:28.066Z,95.70
2022-09-23T11:27:03.880Z,95.60
2022-09-23T11:29:55.192Z,95.00
2022-09-23T11:32:48.250Z,95.40
2022-09-23T11:35:21.349Z,95.40
2022-09-23T11:37:56.714Z,95.60
2022-09-23T11:40:32.115Z,95.10
2022-09-23T11:43:07.243Z,95.10
2022-09-23T11:45:40.905Z,95.40
2022-09-23T11:48:15.133Z,94.90
2022-09-23T11:50:49.092Z,94.70
2022-09-23T11:53:24.664Z,94.80
2022-09-23T11:55:58.693Z,94.40
2022-09-23T11:58:30.549Z,92.90
2022-09-23T12:01:03.951Z,91.40
2022-09-23T12:03:44.625Z,90.50
2022-09-23T12:06:17.064Z,92.10
2022-09-23T12:08:47.259Z,93.20
2022-09-23T12:11:31.383Z,92.90
2022-09-23T12:14:10.997Z,92.60
2022-09-23T12:16:59.666Z,92.80
2022-09-23T12:19:43.859Z,92.50
2022-09-23T12:22:29.501Z,91.40
2022-09-23T12:25:10.396Z,91.40
2022-09-23T12:27:43.665Z,91.70
2022-09-23T12:30:27.796Z,90.80
2022-09-23T12:33:09.471Z,90.90
2022-09-23T12:35:42.576Z,91.20
2022-09-23T12:38:16.028Z,91.20
2022-09-23T12:40:45.787Z,91.00
2022-09-23T12:43:19.316Z,90.60
2022-09-23T12:45:48.126Z,90.90
2022-09-23T12:48:45.902Z,90.80
2022-09-23T12:51:22.125Z,90.40
2022-09-23T12:53:55.794Z,90.60
2022-09-23T12:56:50.564Z,90.30
2022-09-23T12:59:26.304Z,90.20
2022-09-23T13:01:55.678Z,90.30
2022-09-23T13:04:50.746Z,90.40
2022-09-23T13:07:23.783Z,90.00
2022-09-23T13:09:57.178Z,89.20
2022-09-23T13:12:32.154Z,90.10
2022-09-23T13:15:06.433Z,90.20
2022-09-23T13:17:38.303Z,90.40
2022-09-23T13:20:29.176Z,90.20
2022-09-23T13:23:26.789Z,90.30
2022-09-23T13:25:58.106Z,90.30
2022-09-23T13:28:33.538Z,90.30
2022-09-23T13:31:06.468Z,89.90
2022-09-23T13:33:42.477Z,90.10
2022-09-23T13:36:13.835Z,90.40
2022-09-23T13:38:43.686Z,89.70
2022-09-23T13:41:16.230Z,90.00
2022-09-23T13:43:47.548Z,89.20
2022-09-23T13:46:20.345Z,89.20
2022-09-23T13:48:51.882Z,89.40
2022-09-23T13:51:24.620Z,88.60
2022-09-23T13:53:56.214Z,89.20
2022-09-23T13:56:25.821Z,88.60
2022-09-23T13:58:55.847Z,88.50
2022-09-23T14:01:31.423Z,88.70
2022-09-23T14:04:00.306Z,88.30
2022-09-23T14:06:30.656Z,88.20
2022-09-23T14:09:02.527Z,88.10
2022-09-23T14:11:33.813Z,88.00
2022-09-23T14:14:07.234Z,88.00
2022-09-23T14:16:39.346Z,88.50
2022-09-23T14:19:08.923Z,87.20
2022-09-23T14:21:39.051Z,86.40
2022-09-23T14:24:20.938Z,87.00
2022-09-23T14:26:53.445Z,86.70
2022-09-23T14:29:25.538Z,87.60
2022-09-23T14:31:57.751Z,87.20
2022-09-23T14:34:47.100Z,87.70
2022-09-23T14:37:41.393Z,87.70
2022-09-23T14:40:15.562Z,87.00
2022-09-23T14:42:46.476Z,87.40
2022-09-23T14:45:18.557Z,87.60
2022-09-23T14:47:50.359Z,87.40
2022-09-23T14:50:40.678Z,87.50
2022-09-23T14:53:35.250Z,88.00
2022-09-23T14:56:14.651Z,88.00
2022-09-23T14:58:51.038Z,88.10
2022-09-23T15:01:27.843Z,88.90
2022-09-23T15:03:58.353Z,89.30
2022-09-23T15:06:27.325Z,89.70
2022-09-23T15:08:57.027Z,89.80
2022-09-23T15:11:26.755Z,89.70
2022-09-23T15:13:56.230Z,89.40
2022-09-23T15:16:27.747Z,89.80
2022-09-23T15:18:57.932Z,89.10
2022-09-23T15:21:32.292Z,88.90
2022-09-23T15:24:00.683Z,89.00
2022-09-23T15:26:47.635Z,89.40
2022-09-23T15:29:16.055Z,89.80
2022-09-23T15:31:44.360Z,89.80
2022-09-23T15:34:12.732Z,90.00
2022-09-23T15:36:41.270Z,90.10
2022-09-23T15:39:12.213Z,90.40
2022-09-23T15:41:43.281Z,90.50
2022-09-23T15:44:15.218Z,90.40
2022-09-23T15:46:47.589Z,90.50
2022-09-23T15:49:23.142Z,90.50
2022-09-23T15:51:52.142Z,90.70
2022-09-23T15:54:20.452Z,90.90
2022-09-23T15:56:50.112Z,91.00
2022-09-23T15:59:19.195Z,91.10
2022-09-23T16:01:47.676Z,91.20
2022-09-23T16:04:16.982Z,91.00
2022-09-23T16:06:48.397Z,91.10
2022-09-23T16:09:16.920Z,91.30
2022-09-23T16:11:47.234Z,91.40
2022-09-23T16:14:18.031Z,91.50
2022-09-23T16:16:47.997Z,91.50
2022-09-23T16:19:17.766Z,91.60
2022-09-23T16:21:46.183Z,91.70
2022-09-23T16:24:17.940Z,92.20
2022-09-23T16:26:48.642Z,92.20
2022-09-23T16:29:18.320Z,92.10
2022-09-23T16:31:46.658Z,92.30
2022-09-23T16:34:15.001Z,92.60
2022-09-23T16:36:44.943Z,92.60
2022-09-23T16:39:14.619Z,92.90
2022-09-23T16:41:43.511Z,92.90
2022-09-23T16:44:12.605Z,93.00
2022-09-23T16:46:43.278Z,93.30
2022-09-23T16:49:12.504Z,93.50
2022-09-23T16:51:41.292Z,93.70
2022-09-23T16:54:11.959Z,93.90
2022-09-23T16:56:45.066Z,94.40
2022-09-23T16:59:13.964Z,94.40
2022-09-23T17:02:01.795Z,94.60
2022-09-23T17:04:30.255Z,94.90
2022-09-23T17:06:59.201Z,95.20
2022-09-23T17:09:30.270Z,94.90
2022-09-23T17:12:06.113Z,95.10
2022-09-23T17:14:34.640Z,95.50
2022-09-23T17:17:04.320Z,96.40
2022-09-23T17:19:34.073Z,95.80
2022-09-23T17:22:02.637Z,95.90
2022-09-23T17:24:30.993Z,96.20
2022-09-23T17:26:59.395Z,96.40
2022-09-23T17:29:29.091Z,96.70
2022-09-23T17:31:58.055Z,96.90
2022-09-23T17:34:28.928Z,97.10
2022-09-23T17:36:57.178Z,97.50
2022-09-23T17:39:25.467Z,97.70
2022-09-23T17:41:58.488Z,98.10
2022-09-23T17:44:27.004Z,98.30
2022-09-23T17:46:55.360Z,98.60
2022-09-23T17:49:24.250Z,98.90
2022-09-23T17:51:54.014Z,99.30
2022-09-23T17:54:22.805Z,99.50
2022-09-23T17:56:50.977Z,99.60
2022-09-23T17:59:19.203Z,99.70
2022-09-23T18:01:47.578Z,99.90
2022-09-23T18:04:15.962Z,99.90
2022-09-23T18:06:44.238Z,99.90
2022-09-23T18:09:14.152Z,99.90
2022-09-23T18:11:43.728Z,99.90
2022-09-23T18:14:15.350Z,99.90
2022-09-23T18:16:45.684Z,99.90
2022-09-23T18:19:16.024Z,99.90
2022-09-23T18:21:46.150Z,99.90
2022-09-23T18:24:32.848Z,99.90
2022-09-23T18:27:02.477Z,99.90
2022-09-23T18:29:31.613Z,99.90
2022-09-23T18:32:00.290Z,99.90
2022-09-23T18:34:28.795Z,99.90
2022-09-23T18:36:57.255Z,99.90
2022-09-23T18:39:26.908Z,99.90
2022-09-23T18:41:55.565Z,99.90
2022-09-23T18:44:24.450Z,99.90
2022-09-23T18:46:53.100Z,99.90
2022-09-23T18:49:38.689Z,99.90
2022-09-23T18:52:07.033Z,99.90
2022-09-23T18:54:36.755Z,99.90
2022-09-23T18:57:05.269Z,99.90
2022-09-23T18:59:33.590Z,99.90
2022-09-23T19:02:02.093Z,99.90
2022-09-23T19:04:30.502Z,99.90
2022-09-23T19:06:58.950Z,99.90
2022-09-23T19:09:27.300Z,99.90
2022-09-23T19:11:57.715Z,99.90
2022-09-23T19:14:26.710Z,99.90
2022-09-23T19:16:55.144Z,99.90
2022-09-23T19:19:23.523Z,99.90
2022-09-23T19:21:51.931Z,99.90
2022-09-23T19:24:21.049Z,99.90
2022-09-23T19:26:50.457Z,99.90
2022-09-23T19:29:21.945Z,99.90
2022-09-23T19:31:51.070Z,99.90
2022-09-23T19:34:23.678Z,99.90
2022-09-23T19:36:52.838Z,99.90
2022-09-23T19:39:22.649Z,99.90
2022-09-23T19:41:51.411Z,99.90
2022-09-23T19:44:21.425Z,99.90
2022-09-23T19:46:55.892Z,99.90
2022-09-23T19:49:25.423Z,99.90
2022-09-23T19:51:55.822Z,99.90
2022-09-23T19:54:27.139Z,99.90
2022-09-23T19:56:56.149Z,99.90
2022-09-23T19:59:26.470Z,99.90
2022-09-23T20:01:55.533Z,99.90
2022-09-23T20:04:23.865Z,99.90
2022-09-23T20:06:52.169Z,99.90
2022-09-23T20:09:20.731Z,99.90
2022-09-23T20:11:49.681Z,99.90
2022-09-23T20:14:19.320Z,99.90
2022-09-23T20:16:49.009Z,99.90
2022-09-23T20:19:17.671Z,99.90
2022-09-23T20:22:06.129Z,99.90
2022-09-23T20:24:34.481Z,99.90
2022-09-23T20:27:10.890Z,99.90
2022-09-23T20:29:39.384Z,99.90
2022-09-23T20:32:09.379Z,99.90
2022-09-23T20:34:37.773Z,99.90
2022-09-23T20:37:06.388Z,99.90
2022-09-23T20:39:34.724Z,99.90
2022-09-23T20:42:03.392Z,99.90
2022-09-23T20:44:32.092Z,99.90
2022-09-23T20:47:00.504Z,99.90
2022-09-23T20:49:34.180Z,99.90
2022-09-23T20:52:03.019Z,99.90
2022-09-23T20:54:32.049Z,99.90
2022-09-23T20:57:01.427Z,99.90
2022-09-23T20:59:29.655Z,99.90
2022-09-23T21:01:58.660Z,99.90
2022-09-23T21:04:27.358Z,99.90
2022-09-23T21:06:58.506Z,99.90
2022-09-23T21:09:28.271Z,99.90
2022-09-23T21:11:57.025Z,99.90
2022-09-23T21:14:25.724Z,99.90
2022-09-23T21:16:54.726Z,99.90
2022-09-23T21:19:24.409Z,99.90
2022-09-23T21:21:52.740Z,99.90
2022-09-23T21:25:00.385Z,99.90
2022-09-23T21:27:11.586Z,99.90
2022-09-23T21:29:40.211Z,99.90
2022-09-23T21:32:08.538Z,99.90
2022-09-23T21:34:36.858Z,99.90
2022-09-23T21:37:05.933Z,99.90
2022-09-23T21:39:35.709Z,99.90
2022-09-23T21:42:04.434Z,99.90
2022-09-23T21:44:32.757Z,99.90
2022-09-23T21:47:01.194Z,99.90
2022-09-23T21:49:29.572Z,99.90
2022-09-23T21:52:00.634Z,99.90
2022-09-23T21:54:29.677Z,99.90
2022-09-23T21:57:00.452Z,99.90
2022-09-23T21:59:29.158Z,99.90
2022-09-23T22:01:57.523Z,99.90
2022-09-23T22:04:25.940Z,99.90
2022-09-23T22:06:54.726Z,99.90
2022-09-23T22:09:23.156Z,99.90
2022-09-23T22:12:08.587Z,99.90
2022-09-23T22:14:39.125Z,99.90
2022-09-23T22:17:10.556Z,99.90
2022-09-23T22:19:44.211Z,99.90
2022-09-23T22:22:15.594Z,99.90
2022-09-23T22:24:44.855Z,99.90
2022-09-23T22:27:16.515Z,99.90
2022-09-23T22:30:03.493Z,99.90
2022-09-23T22:32:46.192Z,99.90
2022-09-23T22:35:16.712Z,99.90
2022-09-23T22:37:45.705Z,99.90
2022-09-23T22:40:16.268Z,99.90
2022-09-23T22:42:45.129Z,99.90
2022-09-23T22:45:14.929Z,99.90
2022-09-23T22:47:45.521Z,99.90
2022-09-23T22:50:15.216Z,99.90
2022-09-23T22:52:44.045Z,99.90
2022-09-23T22:55:12.881Z,99.90
2022-09-23T22:57:41.169Z,99.90
2022-09-23T23:00:12.250Z,99.90
2022-09-23T23:02:42.517Z,99.90
2022-09-23T23:05:11.109Z,99.90
2022-09-23T23:07:39.356Z,99.90
2022-09-23T23:10:10.162Z,99.90
2022-09-23T23:12:39.547Z,99.90
2022-09-23T23:15:10.570Z,99.90
2022-09-23T23:17:40.529Z,99.90
2022-09-23T23:20:10.862Z,99.90
2022-09-23T23:22:39.127Z,99.90
2022-09-23T23:25:08.258Z,99.90
2022-09-23T23:27:36.668Z,99.90
2022-09-23T23:30:05.463Z,99.90
2022-09-23T23:32:33.724Z,99.90
2022-09-23T23:35:02.046Z,99.90
2022-09-23T23:37:31.694Z,99.90
2022-09-23T23:40:00.087Z,99.90
2022-09-23T23:42:28.321Z,99.90
2022-09-23T23:44:56.672Z,99.90
2022-09-23T23:47:26.400Z,99.90
2022-09-23T23:49:54.677Z,99.90
2022-09-23T23:52:22.956Z,99.90
2022-09-23T23:54:52.705Z,99.90
2022-09-23T23:57:21.001Z,99.90
2022-09-23T23:59:49.558Z,99.90
